Time;durP1;ratioP1;P1;durP2;ratioP2;P2;SDS_P1;SDS_P2;PMS_P1;PMS_P2;Temp;Humidity;BMP_temperature;BMP_pressure;BME280_temperature;BME280_humidity;BME280_pressure;Samples;Min_cycle;Max_cycle;Signal;HPM_P1;HPM_P2
2023/05/01 00:00:17;;;;;;;8.57;5.00;;;5.20;1.00;;;;;;6208331;23;20189;-87
2023/05/01 00:02:43;;;;;;;6.67;4.67;;;5.20;1.00;;;;;;6208402;23;20634;-88
2023/05/01 00:05:09;;;;;;;6.77;4.90;;;6.10;1.00;;;;;;6208414;23;20243;-88
2023/05/01 00:07:34;;;;;;;9.20;5.20;;;5.40;1.00;;;;;;6208705;23;20228;-89
2023/05/01 00:10:02;;;;;;;8.03;5.87;;;5.30;1.00;;;;;;6208466;23;20164;-89
2023/05/01 00:12:28;;;;;;;10.00;5.10;;;5.20;1.00;;;;;;6209790;23;20177;-90
2023/05/01 00:14:53;;;;;;;7.43;5.53;;;5.20;1.00;;;;;;6208520;23;20173;-88
2023/05/01 00:17:21;;;;;;;11.07;5.50;;;5.10;1.00;;;;;;6208371;23;20166;-87
2023/05/01 00:19:51;;;;;;;11.37;6.03;;;5.00;1.00;;;;;;6208675;23;20556;-87
2023/05/01 00:22:16;;;;;;;10.17;5.40;;;4.90;1.00;;;;;;6208206;23;20600;-87
2023/05/01 00:24:42;;;;;;;8.93;5.43;;;5.10;1.00;;;;;;6207641;23;20159;-87
2023/05/01 00:27:08;;;;;;;9.67;5.30;;;5.10;1.00;;;;;;6208038;23;20516;-88
2023/05/01 00:29:33;;;;;;;6.47;4.63;;;5.10;1.00;;;;;;6208064;23;20245;-87
2023/05/01 00:31:59;;;;;;;6.73;4.80;;;5.00;1.00;;;;;;6207990;23;20883;-90
2023/05/01 00:34:24;;;;;;;6.70;4.80;;;5.00;1.00;;;;;;6209639;23;20160;-88
2023/05/01 00:36:50;;;;;;;7.33;4.83;;;5.10;1.00;;;;;;6208318;23;20166;-90
2023/05/01 00:39:16;;;;;;;8.97;5.37;;;5.10;1.00;;;;;;6208417;23;20178;-87
2023/05/01 00:41:41;;;;;;;7.43;4.83;;;4.90;1.00;;;;;;6207946;23;20657;-87
2023/05/01 00:44:07;;;;;;;10.80;5.33;;;4.80;1.00;;;;;;6208488;23;20158;-87
2023/05/01 00:46:33;;;;;;;6.67;4.67;;;4.90;1.00;;;;;;6207458;23;20169;-87
2023/05/01 00:48:59;;;;;;;7.87;5.23;;;4.90;1.00;;;;;;6208204;23;20233;-88
2023/05/01 00:51:28;;;;;;;8.83;5.70;;;4.90;1.00;;;;;;6209429;23;20684;-89
2023/05/01 00:53:55;;;;;;;7.13;5.27;;;4.90;1.00;;;;;;6208230;23;21146;-88
2023/05/01 00:56:20;;;;;;;9.13;5.13;;;4.90;1.00;;;;;;6208212;23;20310;-88
2023/05/01 00:58:52;;;;;;;8.43;5.00;;;4.90;1.00;;;;;;6207524;23;20239;-88
2023/05/01 01:01:20;;;;;;;8.17;5.20;;;4.90;1.00;;;;;;6208204;23;20430;-88
2023/05/01 01:03:46;;;;;;;6.67;5.13;;;5.00;1.00;;;;;;6208052;23;20162;-88
2023/05/01 01:06:32;;;;;;;9.23;4.90;;;5.10;1.00;;;;;;6208012;23;20165;-89
2023/05/01 01:09:27;;;;;;;6.67;4.67;;;5.10;1.00;;;;;;6207520;23;20146;-87
2023/05/01 01:12:12;;;;;;;5.47;4.83;;;5.00;1.00;;;;;;6208851;23;20201;-88
2023/05/01 01:14:54;;;;;;;7.73;5.33;;;5.00;1.00;;;;;;6207719;23;20153;-87
2023/05/01 01:17:37;;;;;;;9.10;5.70;;;5.00;1.00;;;;;;6207524;23;20232;-87
2023/05/01 01:20:31;;;;;;;7.07;5.17;;;4.90;1.00;;;;;;6207492;23;20836;-88
2023/05/01 01:23:17;;;;;;;9.07;5.67;;;4.90;1.00;;;;;;6207216;23;20173;-88
2023/05/01 01:26:06;;;;;;;6.73;5.10;;;4.90;1.00;;;;;;6207623;23;20192;-88
2023/05/01 01:28:59;;;;;;;7.70;5.27;;;4.80;1.00;;;;;;6208071;23;20201;-88
2023/05/01 01:31:35;;;;;;;7.60;4.87;;;4.70;1.00;;;;;;6207164;23;20190;-87
2023/05/01 01:34:15;;;;;;;6.17;5.03;;;4.60;1.00;;;;;;6207484;23;20154;-88
2023/05/01 01:36:59;;;;;;;6.57;5.13;;;4.90;1.00;;;;;;6207658;23;20154;-88
2023/05/01 01:39:49;;;;;;;7.40;4.67;;;5.00;1.00;;;;;;6207178;23;20219;-88
2023/05/01 01:42:19;;;;;;;6.80;5.10;;;4.50;1.00;;;;;;6207367;23;20259;-88
2023/05/01 01:44:57;;;;;;;6.97;5.00;;;4.70;1.00;;;;;;6207291;23;20296;-88
2023/05/01 01:47:30;;;;;;;7.20;5.53;;;4.40;1.00;;;;;;6207120;23;20165;-90
2023/05/01 01:50:00;;;;;;;11.47;5.70;;;4.30;1.00;;;;;;6207393;23;20265;-87
2023/05/01 01:52:28;;;;;;;7.73;5.53;;;4.80;1.00;;;;;;6207153;23;20182;-87
2023/05/01 01:58:17;;;;;;;8.97;5.80;;;4.20;1.00;;;;;;6208776;23;20209;-88
2023/05/01 02:00:45;;;;;;;9.27;5.93;;;4.30;1.00;;;;;;6207175;23;20163;-88
2023/05/01 02:03:13;;;;;;;10.00;6.10;;;4.60;1.00;;;;;;6207234;23;20162;-89
2023/05/01 02:05:40;;;;;;;9.93;6.07;;;5.10;1.00;;;;;;6207302;23;20158;-87
2023/05/01 02:08:08;;;;;;;9.17;6.67;;;5.60;1.00;;;;;;6207001;23;20272;-89
2023/05/01 02:10:39;;;;;;;8.17;5.40;;;4.90;1.00;;;;;;6207523;23;20155;-89
2023/05/01 02:13:05;;;;;;;10.13;6.20;;;5.40;1.00;;;;;;6207412;23;20159;-87
2023/05/01 02:15:31;;;;;;;8.93;6.13;;;4.30;1.00;;;;;;6207466;23;20166;-89
2023/05/01 02:17:58;;;;;;;8.77;6.23;;;5.70;1.00;;;;;;6208598;23;20170;-90
2023/05/01 02:20:24;;;;;;;9.23;6.30;;;5.30;1.00;;;;;;6206696;23;20238;-88
2023/05/01 02:22:57;;;;;;;12.83;6.80;;;5.30;1.00;;;;;;6207177;23;20665;-89
2023/05/01 02:25:23;;;;;;;8.27;6.43;;;5.60;1.00;;;;;;6207584;23;20154;-89
2023/05/01 02:27:59;;;;;;;8.87;6.93;;;5.60;1.00;;;;;;6207239;23;20197;-90
2023/05/01 02:30:25;;;;;;;8.10;6.40;;;4.90;1.00;;;;;;6207279;23;20157;-89
2023/05/01 02:32:51;;;;;;;8.60;6.40;;;5.10;1.00;;;;;;6207412;23;20170;-89
2023/05/01 02:35:17;;;;;;;10.10;6.73;;;5.80;1.00;;;;;;6207397;23;20158;-90
2023/05/01 02:37:44;;;;;;;10.90;6.97;;;4.10;1.00;;;;;;6207225;23;20185;-90
2023/05/01 02:40:13;;;;;;;10.87;7.33;;;5.20;1.00;;;;;;6207080;23;20158;-88
2023/05/01 02:42:42;;;;;;;13.97;7.00;;;4.30;1.00;;;;;;6206644;23;20178;-90
2023/05/01 02:45:13;;;;;;;9.67;6.70;;;4.60;1.00;;;;;;6207231;23;20186;-87
2023/05/01 02:47:41;;;;;;;9.60;6.73;;;4.00;1.00;;;;;;6207519;23;20160;-89
2023/05/01 02:50:08;;;;;;;9.13;6.30;;;3.90;1.00;;;;;;6208826;23;20169;-89
2023/05/01 02:52:36;;;;;;;9.33;6.63;;;4.10;1.00;;;;;;6210639;23;20171;-88
2023/05/01 02:55:02;;;;;;;9.03;6.73;;;4.50;1.00;;;;;;6208858;23;20194;-89
2023/05/01 02:57:28;;;;;;;10.03;6.93;;;4.00;1.00;;;;;;6208562;23;20194;-89
2023/05/01 02:59:53;;;;;;;11.20;7.57;;;3.70;1.00;;;;;;6207453;23;20653;-88
2023/05/01 03:02:19;;;;;;;8.00;6.23;;;4.00;1.00;;;;;;6208532;23;20209;-88
2023/05/01 03:04:45;;;;;;;9.20;6.47;;;4.60;1.00;;;;;;6208541;23;20569;-89
2023/05/01 03:07:10;;;;;;;10.90;6.53;;;4.90;1.00;;;;;;6208289;23;20154;-88
2023/05/01 03:09:37;;;;;;;8.97;6.57;;;4.20;1.00;;;;;;6208851;23;20661;-89
2023/05/01 03:12:02;;;;;;;8.43;6.20;;;4.30;1.00;;;;;;6208333;23;20270;-87
2023/05/01 03:14:28;;;;;;;10.80;6.27;;;4.30;1.00;;;;;;6208727;23;20186;-87
2023/05/01 03:16:54;;;;;;;9.70;6.40;;;4.10;1.00;;;;;;6208605;23;20178;-87
2023/05/01 03:19:20;;;;;;;12.97;6.43;;;5.20;1.00;;;;;;6210061;23;20174;-89
2023/05/01 03:21:46;;;;;;;9.13;6.33;;;4.60;1.00;;;;;;6206938;23;20280;-88
2023/05/01 03:24:11;;;;;;;9.53;6.47;;;4.30;1.00;;;;;;6208594;23;20189;-88
2023/05/01 03:26:37;;;;;;;11.10;7.03;;;5.00;1.00;;;;;;6208136;23;20163;-88
2023/05/01 03:29:03;;;;;;;7.97;6.33;;;4.50;1.00;;;;;;6208034;23;20628;-87
2023/05/01 03:31:28;;;;;;;8.17;6.57;;;4.50;1.00;;;;;;6208080;23;20622;-89
2023/05/01 03:33:54;;;;;;;8.50;6.57;;;5.30;1.00;;;;;;6208504;23;20218;-89
2023/05/01 03:36:21;;;;;;;9.03;6.43;;;4.80;1.00;;;;;;6208515;23;20569;-89
2023/05/01 03:38:47;;;;;;;8.83;6.63;;;4.60;1.00;;;;;;6207866;23;20213;-88
2023/05/01 03:41:13;;;;;;;12.07;7.13;;;3.90;1.00;;;;;;6207994;23;20178;-89
2023/05/01 03:43:38;;;;;;;8.70;6.43;;;4.60;1.00;;;;;;6208197;23;20159;-88
2023/05/01 03:46:31;;;;;;;10.10;6.80;;;4.70;1.00;;;;;;6209750;23;20164;-90
2023/05/01 03:48:56;;;;;;;10.67;6.87;;;4.00;1.00;;;;;;6209744;23;20162;-88
2023/05/01 03:51:22;;;;;;;11.50;6.97;;;4.60;1.00;;;;;;6208141;23;20186;-88
2023/05/01 03:53:48;;;;;;;9.07;6.63;;;4.10;1.00;;;;;;6209120;23;20181;-88
2023/05/01 03:56:13;;;;;;;10.63;5.97;;;4.80;1.00;;;;;;6208160;23;20170;-89
2023/05/01 03:58:39;;;;;;;9.80;6.60;;;4.90;1.00;;;;;;6207615;23;20219;-88
2023/05/01 04:01:05;;;;;;;8.27;5.93;;;5.20;1.00;;;;;;6208001;23;20214;-88
2023/05/01 04:03:30;;;;;;;11.63;7.03;;;4.90;1.00;;;;;;6208830;23;20165;-88
2023/05/01 04:06:05;;;;;;;10.67;6.57;;;4.90;1.00;;;;;;6210064;23;20162;-87
2023/05/01 04:08:30;;;;;;;11.30;7.03;;;4.80;1.00;;;;;;6210463;23;20150;-89
2023/05/01 04:10:56;;;;;;;7.30;6.27;;;4.90;1.00;;;;;;6211370;23;20562;-87
2023/05/01 04:13:21;;;;;;;9.70;6.90;;;4.20;1.00;;;;;;6210197;23;20185;-87
2023/05/01 04:15:47;;;;;;;11.23;6.93;;;4.30;1.00;;;;;;6211900;23;20154;-88
2023/05/01 04:18:15;;;;;;;10.40;6.90;;;4.30;1.00;;;;;;6210256;23;20193;-87
2023/05/01 04:20:44;;;;;;;9.13;7.00;;;4.80;1.00;;;;;;6210198;23;20150;-88
2023/05/01 04:23:11;;;;;;;8.87;6.57;;;4.30;1.00;;;;;;6210582;23;20166;-88
2023/05/01 04:25:37;;;;;;;8.87;6.33;;;5.40;1.00;;;;;;6209297;23;20154;-88
2023/05/01 04:28:03;;;;;;;10.93;6.87;;;6.10;1.00;;;;;;6211116;23;20245;-88
2023/05/01 04:30:32;;;;;;;8.77;7.07;;;5.30;1.00;;;;;;6211611;23;20213;-89
2023/05/01 04:32:57;;;;;;;13.07;7.00;;;6.10;1.00;;;;;;6211744;23;20593;-90
2023/05/01 04:35:24;;;;;;;8.70;6.00;;;6.00;1.00;;;;;;6212594;23;20212;-89
2023/05/01 04:37:50;;;;;;;8.37;6.17;;;5.70;1.00;;;;;;6212635;23;20182;-90
2023/05/01 04:40:16;;;;;;;9.97;6.60;;;6.10;1.00;;;;;;6212814;23;20233;-88
2023/05/01 04:42:42;;;;;;;11.80;6.90;;;6.60;1.00;;;;;;6212625;23;20182;-89
2023/05/01 04:45:08;;;;;;;11.03;6.87;;;6.30;1.00;;;;;;6212683;23;20212;-90
2023/05/01 04:47:33;;;;;;;11.23;7.00;;;5.60;1.00;;;;;;6212285;23;20213;-89
2023/05/01 04:49:59;;;;;;;9.73;6.80;;;5.60;1.00;;;;;;6211688;23;20162;-89
2023/05/01 04:52:25;;;;;;;9.67;6.93;;;5.50;1.00;;;;;;6211079;23;20532;-89
2023/05/01 04:54:50;;;;;;;11.43;7.17;;;5.60;1.00;;;;;;6211557;23;20602;-90
2023/05/01 04:57:16;;;;;;;11.87;6.73;;;6.10;1.00;;;;;;6211975;23;20158;-89
2023/05/01 04:59:42;;;;;;;10.50;6.40;;;6.30;1.00;;;;;;6211901;23;20158;-89
2023/05/01 05:02:07;;;;;;;9.20;6.30;;;5.90;1.00;;;;;;6211715;23;20253;-88
2023/05/01 05:04:33;;;;;;;9.20;6.47;;;7.10;1.00;;;;;;6211653;23;20151;-88
2023/05/01 05:07:11;;;;;;;7.70;5.87;;;6.70;1.00;;;;;;6211800;23;20639;-89
2023/05/01 05:09:37;;;;;;;10.37;6.90;;;7.00;1.00;;;;;;6211711;23;20146;-90
2023/05/01 05:12:03;;;;;;;8.20;6.23;;;7.30;1.00;;;;;;6211519;23;20182;-89
2023/05/01 05:14:32;;;;;;;9.67;6.23;;;7.20;1.00;;;;;;6211954;23;20158;-88
2023/05/01 05:16:57;;;;;;;8.93;6.23;;;7.90;1.00;;;;;;6210357;23;20158;-88
2023/05/01 05:19:23;;;;;;;8.63;6.30;;;8.20;1.00;;;;;;6209707;23;20184;-88
2023/05/01 05:21:48;;;;;;;9.00;6.50;;;7.40;1.00;;;;;;6209478;23;20194;-88
2023/05/01 05:24:14;;;;;;;9.13;6.40;;;7.40;1.00;;;;;;6209686;23;20598;-88
2023/05/01 05:26:40;;;;;;;8.20;6.40;;;7.40;1.00;;;;;;6210134;23;20491;-88
2023/05/01 05:29:06;;;;;;;8.00;5.87;;;7.50;1.00;;;;;;6209612;23;20221;-88
2023/05/01 05:31:31;;;;;;;7.93;6.27;;;7.70;1.00;;;;;;6209894;23;20189;-88
2023/05/01 05:33:57;;;;;;;8.13;6.10;;;8.00;1.00;;;;;;6210750;23;20166;-88
2023/05/01 05:36:23;;;;;;;9.13;7.00;;;8.30;1.00;;;;;;6210230;23;20208;-88
2023/05/01 05:38:49;;;;;;;10.30;6.07;;;8.20;1.00;;;;;;6210484;23;20649;-88
2023/05/01 05:41:15;;;;;;;8.80;5.77;;;8.40;1.00;;;;;;6210563;23;20185;-88
2023/05/01 05:43:41;;;;;;;9.83;5.63;;;8.60;1.00;;;;;;6210422;23;20158;-88
2023/05/01 05:46:06;;;;;;;6.53;5.83;;;8.70;1.00;;;;;;6210968;23;20155;-88
2023/05/01 05:48:32;;;;;;;8.77;5.40;;;9.10;1.00;;;;;;6211014;23;20165;-89
2023/05/01 05:50:57;;;;;;;8.00;5.37;;;9.20;1.00;;;;;;6210600;23;20186;-89
2023/05/01 05:53:23;;;;;;;7.67;5.60;;;9.40;1.00;;;;;;6210492;23;20170;-89
2023/05/01 05:55:49;;;;;;;9.20;4.93;;;9.20;1.00;;;;;;6209984;23;20158;-88
2023/05/01 05:58:30;;;;;;;7.87;5.27;;;9.20;1.00;;;;;;6209513;23;20186;-88
2023/05/01 06:00:55;;;;;;;8.27;5.50;;;9.50;1.00;;;;;;6209089;23;20188;-88
2023/05/01 06:03:21;;;;;;;7.13;5.10;;;10.00;1.00;;;;;;6209018;23;20192;-88
2023/05/01 06:05:47;;;;;;;6.47;4.80;;;10.30;1.00;;;;;;6209280;23;20508;-88
2023/05/01 06:08:13;;;;;;;7.13;5.73;;;10.60;1.00;;;;;;6209379;23;20157;-88
2023/05/01 06:10:42;;;;;;;7.27;4.73;;;11.00;1.00;;;;;;6208628;23;20166;-88
2023/05/01 06:13:09;;;;;;;6.60;4.33;;;11.70;1.00;;;;;;6208330;23;20162;-88
2023/05/01 06:15:37;;;;;;;6.88;4.07;;;12.70;1.00;;;;;;6208916;23;20228;-89
2023/05/01 06:18:03;;;;;;;6.20;3.88;;;14.90;1.00;;;;;;6209064;23;20265;-89
2023/05/01 06:20:29;;;;;;;6.78;4.35;;;16.60;1.00;;;;;;6207210;23;20633;-88
2023/05/01 06:22:56;;;;;;;5.75;4.00;;;16.80;1.00;;;;;;6208543;23;20178;-88
2023/05/01 06:25:25;;;;;;;5.05;3.70;;;17.10;1.00;;;;;;6209792;23;20150;-88
2023/05/01 06:27:50;;;;;;;6.55;3.75;;;16.50;1.00;;;;;;6209907;23;20150;-88
2023/05/01 06:30:18;;;;;;;6.57;4.00;;;16.40;1.00;;;;;;6209589;23;20597;-88
2023/05/01 06:32:45;;;;;;;4.70;3.22;;;15.70;1.00;;;;;;6211456;23;20170;-88
2023/05/01 06:35:19;;;;;;;5.05;3.80;;;15.30;1.00;;;;;;6210114;23;20838;-88
2023/05/01 06:37:45;;;;;;;5.57;3.45;;;16.50;1.00;;;;;;6210223;23;20181;-88
2023/05/01 06:40:11;;;;;;;7.63;4.00;;;16.80;1.00;;;;;;6210428;23;20901;-88
2023/05/01 06:42:38;;;;;;;6.03;3.65;;;16.50;1.00;;;;;;6210069;23;20269;-89
2023/05/01 06:45:05;;;;;;;7.32;4.28;;;17.90;1.00;;;;;;6210811;23;20625;-89
2023/05/01 06:47:32;;;;;;;4.95;4.35;;;17.70;1.00;;;;;;6184002;23;20221;-88
2023/05/01 06:49:57;;;;;;;7.00;5.00;;;17.90;1.00;;;;;;6208656;23;20162;-88
2023/05/01 06:52:23;;;;;;;6.55;4.68;;;17.60;1.00;;;;;;6208706;23;20182;-88
2023/05/01 06:54:49;;;;;;;7.72;4.88;;;16.80;1.00;;;;;;6209072;23;20520;-89
2023/05/01 06:57:14;;;;;;;7.57;5.10;;;17.10;1.00;;;;;;6208731;23;20498;-89
2023/05/01 06:59:48;;;;;;;8.68;5.85;;;17.10;1.00;;;;;;6211056;23;20240;-88
2023/05/01 07:02:22;;;;;;;9.23;5.97;;;16.10;1.00;;;;;;6192683;23;20205;-90
2023/05/01 07:04:48;;;;;;;8.20;5.95;;;16.50;1.00;;;;;;6208212;23;20158;-90
2023/05/01 07:07:13;;;;;;;8.85;6.45;;;16.70;1.00;;;;;;6208050;23;20162;-89
2023/05/01 07:09:40;;;;;;;8.50;6.43;;;16.00;1.00;;;;;;6207274;23;20169;-89
2023/05/01 07:12:05;;;;;;;9.38;7.25;;;15.80;1.00;;;;;;6204484;23;20181;-89
2023/05/01 07:14:32;;;;;;;9.95;7.40;;;15.00;1.00;;;;;;6204221;23;20221;-89
2023/05/01 07:16:57;;;;;;;10.93;7.60;;;13.20;1.00;;;;;;6207925;23;20178;-90
2023/05/01 07:19:23;;;;;;;9.70;8.25;;;12.80;1.00;;;;;;6210884;23;20186;-88
2023/05/01 07:21:48;;;;;;;12.93;9.05;;;12.60;1.00;;;;;;6208463;23;20201;-90
2023/05/01 07:24:15;;;;;;;12.55;9.23;;;13.00;1.00;;;;;;6209445;23;20246;-88
2023/05/01 07:26:41;;;;;;;13.05;10.30;;;12.50;1.00;;;;;;6209607;23;20513;-89
2023/05/01 07:29:07;;;;;;;12.35;10.25;;;13.20;1.00;;;;;;6211330;23;20169;-90
2023/05/01 07:31:32;;;;;;;16.08;11.27;;;13.20;1.00;;;;;;6208777;23;20182;-91
2023/05/01 07:33:58;;;;;;;14.18;11.38;;;13.00;1.00;;;;;;6206958;23;20159;-88
2023/05/01 07:36:23;;;;;;;13.35;10.90;;;12.40;1.00;;;;;;6209575;23;20204;-91
2023/05/01 07:38:49;;;;;;;14.23;11.32;;;12.30;1.00;;;;;;6207124;23;20186;-89
2023/05/01 07:41:15;;;;;;;15.13;11.30;;;12.70;1.00;;;;;;6206851;23;20619;-89
2023/05/01 07:43:40;;;;;;;14.30;11.30;;;12.40;1.00;;;;;;6208371;23;20135;-87
2023/05/01 07:46:06;;;;;;;13.70;11.15;;;12.60;1.00;;;;;;6205842;23;20159;-88
2023/05/01 07:48:31;;;;;;;12.63;10.88;;;12.70;1.00;;;;;;6208414;23;20174;-89
2023/05/01 07:51:02;;;;;;;13.57;10.63;;;12.60;1.00;;;;;;6208139;23;20178;-86
2023/05/01 07:53:41;;;;;;;12.82;10.70;;;12.60;1.00;;;;;;6185097;23;20163;-86
2023/05/01 07:56:12;;;;;;;13.95;11.20;;;12.90;1.00;;;;;;6173652;23;20166;-87
2023/05/01 07:59:05;;;;;;;14.80;11.27;;;12.90;1.00;;;;;;6207128;23;20186;-87
2023/05/01 08:01:40;;;;;;;13.52;11.10;;;12.60;1.00;;;;;;6210748;23;20641;-86
2023/05/01 08:04:14;;;;;;;12.57;10.27;;;13.40;1.00;;;;;;6209271;23;20180;-87
2023/05/01 08:07:21;;;;;;;12.98;10.30;;;13.30;1.00;;;;;;6159197;23;20224;-85
2023/05/01 08:09:53;;;;;;;14.90;10.45;;;13.30;1.00;;;;;;6205915;23;20506;-86
2023/05/01 08:12:24;;;;;;;13.23;10.02;;;13.40;1.00;;;;;;6180805;23;20186;-88
2023/05/01 08:14:55;;;;;;;11.48;9.48;;;13.50;1.00;;;;;;6207654;23;20169;-87
2023/05/01 08:17:22;;;;;;;15.45;9.57;;;13.40;1.00;;;;;;6207168;23;20165;-88
2023/05/01 08:19:48;;;;;;;13.05;9.60;;;13.80;1.00;;;;;;6207865;23;20174;-87
2023/05/01 08:22:14;;;;;;;10.05;8.88;;;13.60;1.00;;;;;;6205065;23;20190;-86
2023/05/01 08:24:41;;;;;;;13.07;8.95;;;14.20;1.00;;;;;;6209173;23;20165;-89
2023/05/01 08:27:08;;;;;;;13.38;8.82;;;13.20;1.00;;;;;;6207554;23;20158;-89
2023/05/01 08:29:34;;;;;;;14.05;9.18;;;14.60;1.00;;;;;;6213138;23;20139;-89
2023/05/01 08:31:59;;;;;;;12.10;7.78;;;13.70;1.00;;;;;;6214812;23;20185;-90
2023/05/01 08:34:28;;;;;;;14.15;8.23;;;13.80;1.00;;;;;;6209821;23;20186;-90
2023/05/01 08:36:54;;;;;;;11.27;8.15;;;14.20;1.00;;;;;;6212334;23;20158;-85
2023/05/01 08:39:19;;;;;;;11.82;8.30;;;14.40;1.00;;;;;;6211211;23;20209;-86
2023/05/01 08:41:46;;;;;;;12.52;9.10;;;14.80;1.00;;;;;;6207995;23;20178;-89
2023/05/01 08:44:14;;;;;;;11.55;8.95;;;14.60;1.00;;;;;;6210867;23;20174;-91
2023/05/01 08:47:06;;;;;;;13.52;9.80;;;15.10;1.00;;;;;;6211296;23;20332;-87
2023/05/01 08:49:36;;;;;;;13.73;8.98;;;14.30;1.00;;;;;;6208725;23;20166;-87
2023/05/01 08:52:05;;;;;;;12.48;9.35;;;14.90;1.00;;;;;;6208636;23;20178;-86
2023/05/01 08:54:55;;;;;;;13.32;9.13;;;14.60;1.00;;;;;;6210083;23;20162;-88
2023/05/01 08:57:25;;;;;;;11.48;9.20;;;14.80;1.00;;;;;;6210979;23;20150;-86
2023/05/01 08:59:57;;;;;;;14.18;9.88;;;14.80;1.00;;;;;;6207807;23;20162;-87
2023/05/01 09:02:23;;;;;;;12.77;9.13;;;15.00;1.00;;;;;;6206625;23;20232;-88
2023/05/01 09:04:50;;;;;;;12.00;9.30;;;15.60;1.00;;;;;;6206225;23;20162;-87
2023/05/01 09:07:16;;;;;;;11.80;8.30;;;15.20;1.00;;;;;;6208124;23;20162;-89
2023/05/01 09:09:43;;;;;;;12.27;9.18;;;15.70;1.00;;;;;;6207609;23;20767;-88
2023/05/01 09:12:17;;;;;;;12.05;8.82;;;15.20;1.00;;;;;;6205577;23;20704;-86
2023/05/01 09:14:44;;;;;;;10.88;9.77;;;15.40;1.00;;;;;;6207709;23;20162;-88
2023/05/01 09:17:11;;;;;;;12.00;9.23;;;15.30;1.00;;;;;;6207649;23;20177;-87
2023/05/01 09:19:37;;;;;;;12.85;8.90;;;15.50;1.00;;;;;;6207150;23;20236;-87
2023/05/01 09:22:02;;;;;;;11.35;9.23;;;16.00;1.00;;;;;;6206923;23;20202;-87
2023/05/01 09:24:29;;;;;;;11.10;9.55;;;15.80;1.00;;;;;;6207121;23;21066;-88
2023/05/01 09:26:57;;;;;;;10.95;9.23;;;15.40;1.00;;;;;;6207599;23;20165;-88
2023/05/01 09:29:40;;;;;;;11.18;8.75;;;15.50;1.00;;;;;;6208923;23;20166;-87
2023/05/01 09:32:23;;;;;;;11.57;9.15;;;15.80;1.00;;;;;;6210455;23;20531;-88
2023/05/01 09:34:51;;;;;;;10.63;9.02;;;16.00;1.00;;;;;;6208413;23;20177;-88
2023/05/01 09:37:30;;;;;;;13.18;9.00;;;16.60;1.00;;;;;;6208095;23;20166;-88
2023/05/01 09:40:13;;;;;;;10.80;8.35;;;16.90;1.00;;;;;;6207887;23;20248;-86
2023/05/01 09:42:50;;;;;;;11.45;8.82;;;16.10;1.00;;;;;;6207708;23;20180;-88
2023/05/01 09:45:17;;;;;;;9.85;8.43;;;16.20;1.00;;;;;;6207739;23;20165;-87
2023/05/01 09:47:44;;;;;;;9.68;8.25;;;15.70;1.00;;;;;;6208294;23;20162;-87
2023/05/01 09:50:34;;;;;;;9.40;8.38;;;16.80;1.00;;;;;;6207842;23;20169;-89
2023/05/01 09:53:01;;;;;;;9.40;8.40;;;16.30;1.00;;;;;;6208102;23;20238;-88
2023/05/01 09:55:27;;;;;;;9.88;8.57;;;16.80;1.00;;;;;;6207998;23;20204;-88
2023/05/01 09:57:53;;;;;;;11.05;8.00;;;16.90;1.00;;;;;;6208826;23;20198;-88
2023/05/01 10:00:37;;;;;;;12.80;7.93;;;16.70;1.00;;;;;;6210202;23;20165;-87
2023/05/01 10:03:15;;;;;;;12.00;8.82;;;16.70;1.00;;;;;;6210475;23;20162;-87
2023/05/01 10:05:44;;;;;;;9.57;7.60;;;17.50;1.00;;;;;;6210730;23;20207;-89
2023/05/01 10:08:13;;;;;;;11.15;7.70;;;17.30;1.00;;;;;;6212622;23;20225;-87
2023/05/01 10:10:40;;;;;;;9.93;7.93;;;17.40;1.00;;;;;;6210184;23;20523;-88
2023/05/01 10:13:16;;;;;;;10.75;7.70;;;17.50;1.00;;;;;;6209684;23;20170;-89
2023/05/01 10:15:43;;;;;;;9.35;8.25;;;18.30;1.00;;;;;;6212177;23;20597;-88
2023/05/01 10:18:12;;;;;;;11.73;7.40;;;18.00;1.00;;;;;;6211645;23;20232;-87
2023/05/01 10:20:38;;;;;;;9.63;8.00;;;18.20;1.00;;;;;;6210070;23;20492;-88
2023/05/01 10:23:03;;;;;;;10.27;7.82;;;17.80;1.00;;;;;;6210137;23;20170;-89
2023/05/01 10:25:30;;;;;;;9.60;7.00;;;18.50;1.00;;;;;;6210116;23;20169;-89
2023/05/01 10:27:57;;;;;;;8.45;6.68;;;17.90;1.00;;;;;;6211737;23;20185;-87
2023/05/01 10:30:25;;;;;;;8.32;6.72;;;17.90;1.00;;;;;;6209954;23;20169;-88
2023/05/01 10:32:51;;;;;;;7.68;6.22;;;18.00;1.00;;;;;;6210446;23;20182;-88
2023/05/01 10:35:27;;;;;;;8.68;6.13;;;18.20;1.00;;;;;;6208209;23;20209;-89
2023/05/01 10:38:05;;;;;;;9.40;6.47;;;18.50;1.00;;;;;;6208980;23;20976;-88
2023/05/01 10:40:43;;;;;;;10.18;7.07;;;18.30;1.00;;;;;;6210785;23;20185;-89
2023/05/01 10:43:24;;;;;;;9.73;6.00;;;18.10;1.00;;;;;;6209341;23;20162;-88
2023/05/01 10:45:52;;;;;;;8.32;6.35;;;18.50;1.00;;;;;;6212554;23;20185;-89
2023/05/01 10:48:36;;;;;;;7.97;6.05;;;18.10;1.00;;;;;;6213672;23;20170;-88
2023/05/01 10:51:23;;;;;;;6.38;5.38;;;18.20;1.00;;;;;;6212203;23;20189;-87
2023/05/01 10:54:12;;;;;;;5.20;4.70;;;18.40;1.00;;;;;;6212019;23;20557;-89
2023/05/01 10:56:38;;;;;;;8.82;5.97;;;18.60;1.00;;;;;;6209602;23;20197;-87
2023/05/01 10:59:04;;;;;;;6.90;5.40;;;18.40;1.00;;;;;;6210284;23;20189;-88
2023/05/01 11:01:30;;;;;;;8.55;5.45;;;18.50;1.00;;;;;;6211676;23;20193;-87
2023/05/01 11:04:28;;;;;;;7.28;5.13;;;18.50;1.00;;;;;;6210428;23;20165;-88
2023/05/01 11:07:10;;;;;;;5.82;4.63;;;18.40;1.00;;;;;;6209574;23;20196;-87
2023/05/01 11:09:40;;;;;;;5.93;5.32;;;18.60;1.00;;;;;;6209933;23;20162;-87
2023/05/01 11:12:07;;;;;;;5.32;4.82;;;18.60;1.00;;;;;;6209676;23;20186;-87
2023/05/01 11:15:00;;;;;;;6.45;5.00;;;18.30;1.00;;;;;;6209701;23;20162;-88
2023/05/01 11:17:41;;;;;;;6.45;4.47;;;18.20;1.00;;;;;;6209396;23;20215;-87
2023/05/01 11:20:09;;;;;;;6.40;4.60;;;18.10;1.00;;;;;;6209849;23;20166;-87
2023/05/01 11:22:36;;;;;;;5.22;4.03;;;18.00;1.00;;;;;;6210251;23;20349;-88
2023/05/01 11:25:03;;;;;;;6.13;4.30;;;18.70;1.00;;;;;;6210103;23;20165;-87
2023/05/01 11:27:32;;;;;;;5.88;4.20;;;17.90;1.00;;;;;;6209777;23;20666;-89
2023/05/01 11:29:59;;;;;;;5.55;4.60;;;18.30;1.00;;;;;;6209958;23;20159;-89
2023/05/01 11:32:28;;;;;;;5.95;4.75;;;18.20;1.00;;;;;;6211614;23;20193;-88
2023/05/01 11:34:55;;;;;;;7.22;4.47;;;18.50;1.00;;;;;;6210257;23;20158;-87
2023/05/01 11:37:44;;;;;;;5.80;4.00;;;18.40;1.00;;;;;;6209330;23;20610;-89
2023/05/01 11:40:31;;;;;;;6.45;4.63;;;18.50;1.00;;;;;;6210778;23;20276;-90
2023/05/01 11:43:07;;;;;;;6.90;4.75;;;18.70;1.00;;;;;;6214162;23;20161;-88
2023/05/01 11:45:34;;;;;;;6.05;4.35;;;18.80;1.00;;;;;;6209804;23;20624;-88
2023/05/01 11:48:01;;;;;;;6.60;4.38;;;18.70;1.00;;;;;;6210571;23;20162;-87
2023/05/01 11:50:35;;;;;;;5.80;4.40;;;18.50;1.00;;;;;;6210630;23;20150;-86
2023/05/01 11:53:02;;;;;;;4.95;3.80;;;18.80;1.00;;;;;;6209026;23;20163;-87
2023/05/01 11:55:32;;;;;;;9.38;7.57;;;18.30;1.00;;;;;;6210216;23;20541;-88
2023/05/01 11:57:58;;;;;;;5.28;4.78;;;18.50;1.00;;;;;;6211468;23;20538;-87
2023/05/01 12:00:28;;;;;;;5.25;3.97;;;18.60;1.00;;;;;;6209908;23;20182;-87
2023/05/01 12:03:02;;;;;;;5.43;3.92;;;18.90;1.00;;;;;;6215910;23;20158;-88
2023/05/01 12:05:44;;;;;;;5.05;3.53;;;18.80;1.00;;;;;;6217139;23;20158;-91
2023/05/01 12:35:14;;;;;;;4.40;3.78;;;19.10;1.00;;;;;;6207265;23;20228;-88
2023/05/01 12:37:40;;;;;;;7.85;4.75;;;19.30;1.00;;;;;;6180360;23;20158;-87
2023/05/01 12:40:12;;;;;;;5.63;4.00;;;19.70;1.00;;;;;;6203690;23;20158;-86
2023/05/01 12:42:38;;;;;;;4.47;3.95;;;19.30;1.00;;;;;;6206592;23;20193;-87
2023/05/01 12:45:04;;;;;;;7.38;4.47;;;19.20;1.00;;;;;;6208242;23;20486;-87
2023/05/01 12:47:36;;;;;;;4.97;3.90;;;19.30;1.00;;;;;;6206807;23;20158;-86
2023/05/01 12:50:03;;;;;;;5.07;3.90;;;19.50;1.00;;;;;;6206448;23;20478;-86
2023/05/01 12:52:30;;;;;;;6.40;3.60;;;19.70;1.00;;;;;;6206258;23;20174;-87
2023/05/01 12:55:05;;;;;;;6.72;4.75;;;19.60;1.00;;;;;;6205188;23;20159;-85
2023/05/01 12:57:31;;;;;;;5.68;4.15;;;19.70;1.00;;;;;;6205482;23;20213;-87
2023/05/01 13:00:01;;;;;;;5.30;4.13;;;19.80;1.00;;;;;;6206027;23;20205;-88
2023/05/01 13:02:32;;;;;;;5.40;3.75;;;19.70;1.00;;;;;;6204791;23;20215;-88
2023/05/01 13:05:09;;;;;;;5.68;3.97;;;19.80;1.00;;;;;;6205546;23;20163;-87
2023/05/01 13:07:35;;;;;;;4.75;4.03;;;19.80;1.00;;;;;;6206069;23;20169;-87
2023/05/01 13:10:02;;;;;;;6.07;3.80;;;19.50;1.00;;;;;;6205237;23;20591;-87
2023/05/01 13:12:33;;;;;;;5.00;3.92;;;19.60;1.00;;;;;;6206099;23;20185;-88
2023/05/01 13:14:59;;;;;;;5.32;3.53;;;19.90;1.00;;;;;;6205239;23;20158;-86
2023/05/01 13:17:35;;;;;;;5.38;3.60;;;19.90;1.00;;;;;;6205252;23;20178;-87
2023/05/01 19:21:42;;;;;;;6.22;4.90;;;12.20;1.00;;;;;;6188100;22;20215;-90
2023/05/01 19:24:07;;;;;;;5.40;4.90;;;12.10;1.00;;;;;;6176205;23;20387;-90
2023/05/01 19:26:33;;;;;;;6.25;5.10;;;12.10;1.00;;;;;;6176427;23;20154;-89
2023/05/01 19:28:58;;;;;;;5.95;5.35;;;12.60;1.00;;;;;;6177182;23;20242;-90
2023/05/01 19:31:24;;;;;;;8.23;7.43;;;12.00;1.00;;;;;;6177033;23;20179;-89
2023/05/01 19:33:52;;;;;;;5.78;5.18;;;11.90;1.00;;;;;;6177325;23;20170;-89
2023/05/01 19:36:18;;;;;;;5.35;4.90;;;11.80;1.00;;;;;;6178293;23;20380;-89
2023/05/01 19:38:44;;;;;;;5.32;4.78;;;11.70;1.00;;;;;;6177408;23;20275;-89
2023/05/01 19:41:11;;;;;;;5.68;5.15;;;12.30;1.00;;;;;;6177143;23;20720;-89